Triana, Alabama
Current Conditions -  °F | °C
As of 8:53 PM on Friday 21 Nov 2014 (Local Time) from KHSV Reporting Station
Scattered Clouds Scattered Clouds  
Wind Chill: 43°   Ceiling: Unl
Heat Index: 47°   Visibility: 10mi
Dew Point: 38°   Wind: 8mph
Humidity: 71%   Direction: 110°ESE
Pressure: 30.37"   Gusts: NA
Location:  34.6731°N, 86.8135°W
Report Text: KHSV 220253Z 11007KT 10SM SCT150 08/03 A3037 RMK AO2 SLP283 T00830033 50006
Loading
Personal Weather Stations






























Interactive Weather Map New forecast layout! Learn more

10-Day Weather Forecast

Advertisements
Track Severe Weather on mobile